createdAt,value
2018-07-23T00:01:33.074Z,20.49
2018-07-23T00:04:01.385Z,20.43
2018-07-23T00:06:29.908Z,20.43
2018-07-23T00:08:58.305Z,20.46
2018-07-23T00:11:26.588Z,20.44
2018-07-23T00:13:54.883Z,20.38
2018-07-23T00:16:23.153Z,20.48
2018-07-23T00:18:51.405Z,20.34
2018-07-23T00:21:19.885Z,20.30
2018-07-23T00:23:48.139Z,20.23
2018-07-23T00:26:16.342Z,20.18
2018-07-23T00:28:44.745Z,20.15
2018-07-23T00:31:12.999Z,20.20
2018-07-23T00:33:41.269Z,20.15
2018-07-23T00:36:09.506Z,20.13
2018-07-23T00:38:37.801Z,20.14
2018-07-23T00:41:06.030Z,20.19
2018-07-23T00:43:34.393Z,20.24
2018-07-23T00:46:02.603Z,20.27
2018-07-23T00:48:30.864Z,20.28
2018-07-23T00:50:59.107Z,20.29
2018-07-23T00:53:27.384Z,20.33
2018-07-23T00:55:55.623Z,20.27
2018-07-23T00:58:23.872Z,20.26
2018-07-23T01:00:52.176Z,20.29
2018-07-23T01:03:20.483Z,20.31
2018-07-23T01:05:48.737Z,20.34
2018-07-23T01:08:17.195Z,20.29
2018-07-23T01:10:45.548Z,20.33
2018-07-23T01:13:13.792Z,20.30
2018-07-23T01:15:41.978Z,20.26
2018-07-23T01:18:10.249Z,20.22
2018-07-23T01:20:38.498Z,20.23
2018-07-23T01:23:06.800Z,20.23
2018-07-23T01:25:35.072Z,20.15
2018-07-23T01:28:03.515Z,20.18
2018-07-23T01:30:31.816Z,20.06
2018-07-23T01:33:00.053Z,20.15
2018-07-23T01:35:28.329Z,20.02
2018-07-23T01:37:56.730Z,20.04
2018-07-23T01:40:24.972Z,20.00
2018-07-23T01:42:53.214Z,20.04
2018-07-23T01:45:21.460Z,20.01
2018-07-23T01:47:49.690Z,20.04
2018-07-23T01:50:17.945Z,20.03
2018-07-23T01:52:46.182Z,20.04
2018-07-23T01:55:14.449Z,19.96
2018-07-23T01:57:42.708Z,19.93
2018-07-23T02:00:10.934Z,19.88
2018-07-23T02:02:39.311Z,19.93
2018-07-23T02:05:07.641Z,19.92
2018-07-23T02:07:35.877Z,19.93
2018-07-23T02:10:04.234Z,19.94
2018-07-23T02:12:32.564Z,19.90
2018-07-23T02:15:00.839Z,19.84
2018-07-23T02:17:29.083Z,19.69
2018-07-23T02:19:57.273Z,19.70
2018-07-23T02:22:25.648Z,19.71
2018-07-23T02:24:53.861Z,19.65
2018-07-23T02:27:22.178Z,19.67
2018-07-23T02:29:50.533Z,19.71
2018-07-23T02:32:18.790Z,19.67
2018-07-23T02:34:47.027Z,19.62
2018-07-23T02:37:15.291Z,19.54
2018-07-23T02:39:43.521Z,19.57
2018-07-23T02:42:11.766Z,19.60
2018-07-23T02:44:40.342Z,19.72
2018-07-23T02:47:09.272Z,19.82
2018-07-23T02:49:37.760Z,19.87
2018-07-23T02:52:05.993Z,19.91
2018-07-23T02:54:34.319Z,19.96
2018-07-23T02:57:02.864Z,19.91
2018-07-23T02:59:31.227Z,19.96
2018-07-23T03:01:59.415Z,19.96
2018-07-23T03:04:27.712Z,20.00
2018-07-23T03:06:56.061Z,19.96
2018-07-23T03:09:24.342Z,19.95
2018-07-23T03:11:52.618Z,19.99
2018-07-23T03:14:20.888Z,20.02
2018-07-23T03:16:49.422Z,20.01
2018-07-23T03:19:17.693Z,20.01
2018-07-23T03:21:46.037Z,20.02
2018-07-23T03:24:14.302Z,20.01
2018-07-23T03:26:42.550Z,19.92
2018-07-23T03:29:10.972Z,19.75
2018-07-23T03:31:39.180Z,19.87
2018-07-23T03:34:07.433Z,19.90
2018-07-23T03:36:35.664Z,19.83
2018-07-23T03:39:04.696Z,19.88
2018-07-23T03:41:33.084Z,19.93
2018-07-23T03:44:01.332Z,20.00
2018-07-23T03:46:29.607Z,19.94
2018-07-23T03:48:57.983Z,19.98
2018-07-23T03:51:26.311Z,20.10
2018-07-23T03:53:54.888Z,20.07
2018-07-23T03:56:23.137Z,20.13
2018-07-23T03:58:51.559Z,20.05
2018-07-23T04:01:19.825Z,20.13
2018-07-23T04:03:48.189Z,20.16
2018-07-23T04:06:16.489Z,20.06
2018-07-23T04:08:44.772Z,20.24
2018-07-23T04:11:13.122Z,20.36
2018-07-23T04:13:41.489Z,20.43
2018-07-23T04:16:09.802Z,20.47
2018-07-23T04:18:38.145Z,20.39
2018-07-23T04:21:06.482Z,20.47
2018-07-23T04:23:34.723Z,20.51
2018-07-23T04:26:03.137Z,20.43
2018-07-23T04:28:31.353Z,20.41
2018-07-23T04:30:59.610Z,20.60
2018-07-23T04:33:28.026Z,20.84
2018-07-23T04:35:56.347Z,20.98
2018-07-23T04:38:24.541Z,20.81
2018-07-23T04:40:53.019Z,21.07
2018-07-23T04:43:21.468Z,21.13
2018-07-23T04:45:49.675Z,21.30
2018-07-23T04:48:18.104Z,21.47
2018-07-23T04:50:46.329Z,21.46
2018-07-23T04:53:14.758Z,21.61
2018-07-23T04:55:42.983Z,21.97
2018-07-23T04:58:11.180Z,22.23
2018-07-23T05:00:39.440Z,22.24
2018-07-23T05:03:07.651Z,22.69
2018-07-23T05:05:36.046Z,23.10
2018-07-23T05:08:06.055Z,23.46
2018-07-23T05:10:34.328Z,23.83
2018-07-23T05:13:02.569Z,23.90
2018-07-23T05:15:30.876Z,24.12
2018-07-23T05:17:59.101Z,24.39
2018-07-23T05:20:27.425Z,24.50
2018-07-23T05:22:55.920Z,24.65
2018-07-23T05:25:24.113Z,24.60
2018-07-23T05:27:52.788Z,24.64
2018-07-23T05:30:21.027Z,24.69
2018-07-23T05:32:49.240Z,24.80
2018-07-23T05:35:17.659Z,24.92
2018-07-23T05:37:46.032Z,25.06
2018-07-23T05:40:14.275Z,25.11
2018-07-23T05:42:42.490Z,25.07
2018-07-23T05:45:10.760Z,25.08
2018-07-23T05:47:39.099Z,25.10
2018-07-23T05:50:08.121Z,25.12
2018-07-23T05:52:36.327Z,25.07
2018-07-23T05:55:04.649Z,25.20
2018-07-23T05:57:32.926Z,25.30
2018-07-23T06:00:02.099Z,25.38
2018-07-23T06:02:30.274Z,25.19
2018-07-23T06:04:59.612Z,25.03
2018-07-23T06:07:27.819Z,24.66
2018-07-23T06:09:56.186Z,24.80
2018-07-23T06:12:24.376Z,24.70
2018-07-23T06:14:52.646Z,24.56
2018-07-23T06:17:20.859Z,24.46
2018-07-23T06:19:49.059Z,24.55
2018-07-23T06:22:17.342Z,24.82
2018-07-23T06:24:45.615Z,24.59
2018-07-23T06:27:13.835Z,24.89
2018-07-23T06:29:42.148Z,25.01
2018-07-23T06:32:11.019Z,24.27
2018-07-23T06:34:39.255Z,24.52
2018-07-23T06:37:07.519Z,24.60
2018-07-23T06:39:35.828Z,24.85
2018-07-23T06:42:04.194Z,24.85
2018-07-23T06:44:32.478Z,24.75
2018-07-23T06:47:00.715Z,24.92
2018-07-23T06:49:28.903Z,24.85
2018-07-23T06:51:57.258Z,25.05
2018-07-23T06:54:25.511Z,25.13
2018-07-23T06:56:53.796Z,25.23
2018-07-23T06:59:22.122Z,25.31
2018-07-23T07:01:50.380Z,25.37
2018-07-23T07:04:18.600Z,25.30
2018-07-23T07:06:46.835Z,25.35
2018-07-23T07:09:15.183Z,25.43
2018-07-23T07:11:43.484Z,25.58
2018-07-23T07:14:11.811Z,25.62
2018-07-23T07:16:40.058Z,25.82
2018-07-23T07:19:08.353Z,25.93
2018-07-23T07:21:36.656Z,25.97
2018-07-23T07:24:05.021Z,25.96
2018-07-23T07:26:33.224Z,26.21
2018-07-23T07:29:01.440Z,26.16
2018-07-23T07:31:29.779Z,26.03
2018-07-23T07:33:58.134Z,26.12
2018-07-23T07:36:26.459Z,26.06
2018-07-23T07:38:54.768Z,26.00
2018-07-23T07:41:22.995Z,26.19
2018-07-23T07:43:51.247Z,26.37
2018-07-23T07:46:19.562Z,26.35
2018-07-23T07:48:47.824Z,26.44
2018-07-23T07:51:16.099Z,26.54
2018-07-23T07:53:44.305Z,26.70
2018-07-23T07:56:12.573Z,26.88
2018-07-23T07:58:40.784Z,26.86
2018-07-23T08:01:09.008Z,27.08
2018-07-23T08:03:37.243Z,27.13
2018-07-23T08:06:05.593Z,27.18
2018-07-23T08:08:33.810Z,27.11
2018-07-23T08:11:02.090Z,27.35
2018-07-23T08:13:30.482Z,27.54
2018-07-23T08:15:58.754Z,27.60
2018-07-23T08:18:26.901Z,27.78
2018-07-23T08:20:55.397Z,27.66
2018-07-23T08:23:23.627Z,27.83
2018-07-23T08:25:51.856Z,27.90
2018-07-23T08:28:20.129Z,27.83
2018-07-23T08:30:48.416Z,27.81
2018-07-23T08:33:16.608Z,27.67
2018-07-23T08:35:44.858Z,27.52
2018-07-23T08:38:13.055Z,27.55
2018-07-23T08:40:41.301Z,27.45
2018-07-23T08:43:09.677Z,27.34
2018-07-23T08:45:37.918Z,27.34
2018-07-23T08:48:06.180Z,27.32
2018-07-23T08:50:34.504Z,27.09
2018-07-23T08:53:02.744Z,26.83
2018-07-23T08:55:30.972Z,26.90
2018-07-23T08:57:59.216Z,26.99
2018-07-23T09:00:27.758Z,27.13
2018-07-23T09:02:56.054Z,27.32
2018-07-23T09:05:24.246Z,27.43
2018-07-23T09:07:52.467Z,27.37
2018-07-23T09:10:20.739Z,27.54
2018-07-23T09:12:48.941Z,27.55
2018-07-23T09:15:17.477Z,27.40
2018-07-23T09:17:45.733Z,27.37
2018-07-23T09:20:14.034Z,27.65
2018-07-23T09:22:42.359Z,27.51
2018-07-23T09:25:10.724Z,27.26
2018-07-23T09:27:38.999Z,27.65
2018-07-23T09:30:11.676Z,27.86
2018-07-23T09:32:40.011Z,28.03
2018-07-23T09:35:08.295Z,28.46
2018-07-23T09:37:36.534Z,28.45
2018-07-23T09:40:04.845Z,28.46
2018-07-23T09:42:33.284Z,28.54
2018-07-23T09:45:01.599Z,28.21
2018-07-23T09:47:30.003Z,28.17
2018-07-23T09:49:58.236Z,28.20
2018-07-23T09:52:26.527Z,27.78
2018-07-23T09:54:54.769Z,27.20
2018-07-23T09:57:23.039Z,27.45
2018-07-23T09:59:51.421Z,27.70
2018-07-23T10:02:19.653Z,27.61
2018-07-23T10:04:47.969Z,27.87
2018-07-23T10:07:16.423Z,27.94
2018-07-23T10:09:44.654Z,28.32
2018-07-23T10:12:12.844Z,28.63
2018-07-23T10:14:41.605Z,28.31
2018-07-23T10:17:10.182Z,28.36
2018-07-23T10:19:38.444Z,28.69
2018-07-23T10:22:06.729Z,28.13
2018-07-23T10:24:34.912Z,27.33
2018-07-23T10:27:03.134Z,27.77
2018-07-23T10:29:31.373Z,28.14
2018-07-23T10:31:59.668Z,28.19
2018-07-23T10:34:27.907Z,28.30
2018-07-23T10:36:56.206Z,28.40
2018-07-23T10:39:24.395Z,28.57
2018-07-23T10:41:52.594Z,28.80
2018-07-23T10:44:20.824Z,28.97
2018-07-23T10:46:49.116Z,29.13
2018-07-23T10:49:17.435Z,29.22
2018-07-23T10:51:45.700Z,29.41
2018-07-23T10:54:13.913Z,29.42
2018-07-23T10:56:42.232Z,29.40
2018-07-23T10:59:10.463Z,29.52
2018-07-23T11:01:38.720Z,29.61
2018-07-23T11:04:07.074Z,29.74
2018-07-23T11:06:35.348Z,29.71
2018-07-23T11:09:03.715Z,29.69
2018-07-23T11:11:32.057Z,28.99
2018-07-23T11:14:00.332Z,29.37
2018-07-23T11:16:28.605Z,29.33
2018-07-23T11:18:57.043Z,29.45
2018-07-23T11:21:25.286Z,29.69
2018-07-23T11:23:53.543Z,29.86
2018-07-23T11:26:21.966Z,29.48
2018-07-23T11:28:50.166Z,29.73
2018-07-23T11:31:18.512Z,29.95
2018-07-23T11:33:47.001Z,30.15
2018-07-23T11:36:15.316Z,30.08
2018-07-23T11:38:43.584Z,30.25
2018-07-23T11:41:11.826Z,29.76
2018-07-23T11:43:40.093Z,29.65
2018-07-23T11:46:08.396Z,29.97
2018-07-23T11:48:36.584Z,30.31
2018-07-23T11:51:04.850Z,30.57
2018-07-23T11:53:33.184Z,30.86
2018-07-23T11:56:01.332Z,31.22
2018-07-23T11:58:29.578Z,30.45
2018-07-23T12:00:57.913Z,31.33
2018-07-23T12:03:26.264Z,31.52
2018-07-23T12:05:54.540Z,31.51
2018-07-23T12:08:22.805Z,32.24
2018-07-23T12:10:51.020Z,32.50
2018-07-23T12:13:19.301Z,32.61
2018-07-23T12:15:47.598Z,33.54
2018-07-23T12:18:15.862Z,34.38
2018-07-23T12:20:44.072Z,34.57
2018-07-23T12:23:12.327Z,35.26
2018-07-23T12:25:40.524Z,36.52
2018-07-23T12:28:08.976Z,37.46
2018-07-23T12:30:37.360Z,37.79
2018-07-23T12:33:05.868Z,37.99
2018-07-23T12:35:34.191Z,38.09
2018-07-23T12:38:02.825Z,37.73
2018-07-23T12:40:31.183Z,39.03
2018-07-23T12:42:59.455Z,39.89
2018-07-23T12:45:27.751Z,40.65
2018-07-23T12:47:56.025Z,41.58
2018-07-23T12:50:24.413Z,41.61
2018-07-23T12:52:52.867Z,41.33
2018-07-23T12:55:21.239Z,41.23
2018-07-23T12:57:49.980Z,41.24
2018-07-23T13:00:18.320Z,41.98
2018-07-23T13:02:46.612Z,42.60
2018-07-23T13:05:14.884Z,42.67
2018-07-23T13:07:43.076Z,43.32
2018-07-23T13:10:11.533Z,44.11
2018-07-23T13:12:39.749Z,44.03
2018-07-23T13:15:07.983Z,42.96
2018-07-23T13:17:36.318Z,43.41
2018-07-23T13:20:04.809Z,43.37
2018-07-23T13:22:33.263Z,39.65
2018-07-23T13:25:01.831Z,40.24
2018-07-23T13:27:30.158Z,41.19
2018-07-23T13:29:58.370Z,42.58
2018-07-23T13:32:26.687Z,43.78
2018-07-23T13:34:55.195Z,44.17
2018-07-23T13:37:23.540Z,44.85
2018-07-23T13:39:52.592Z,44.46
2018-07-23T13:42:20.954Z,43.73
2018-07-23T13:44:49.238Z,44.26
2018-07-23T13:47:17.530Z,44.91
2018-07-23T13:49:45.819Z,42.06
2018-07-23T13:52:14.125Z,41.19
2018-07-23T13:54:42.377Z,41.42
2018-07-23T13:57:10.779Z,42.73
2018-07-23T13:59:39.061Z,44.02
2018-07-23T14:02:07.428Z,42.02
2018-07-23T14:04:35.729Z,43.32
2018-07-23T14:07:03.944Z,43.32
2018-07-23T14:09:32.238Z,41.63
2018-07-23T14:12:00.519Z,42.52
2018-07-23T14:14:28.822Z,43.19
2018-07-23T14:16:56.992Z,42.76
2018-07-23T14:19:25.580Z,41.41
2018-07-23T14:21:53.764Z,40.98
2018-07-23T14:24:22.016Z,41.68
2018-07-23T14:26:50.214Z,41.39
2018-07-23T14:29:18.563Z,41.44
2018-07-23T14:31:46.790Z,42.39
2018-07-23T14:34:15.268Z,43.11
2018-07-23T14:36:43.670Z,43.49
2018-07-23T14:39:13.435Z,44.20
2018-07-23T14:41:41.927Z,43.37
2018-07-23T14:44:10.423Z,43.09
2018-07-23T14:46:39.460Z,42.28
2018-07-23T14:49:08.141Z,41.41
2018-07-23T14:51:37.068Z,40.53
2018-07-23T14:54:05.800Z,42.02
2018-07-23T14:56:34.244Z,42.98
2018-07-23T14:59:02.596Z,44.07
2018-07-23T15:01:31.344Z,44.13
2018-07-23T15:03:59.694Z,43.82
2018-07-23T15:06:28.074Z,42.52
2018-07-23T15:08:56.396Z,41.43
2018-07-23T15:11:24.756Z,40.08
2018-07-23T15:13:53.086Z,42.14
2018-07-23T15:16:21.658Z,43.04
2018-07-23T15:18:49.951Z,43.74
2018-07-23T15:21:18.320Z,43.80
2018-07-23T15:23:46.586Z,42.69
2018-07-23T15:26:14.915Z,43.57
2018-07-23T15:28:43.204Z,44.21
2018-07-23T15:31:11.524Z,43.52
2018-07-23T15:33:39.799Z,44.00
2018-07-23T15:36:08.274Z,43.79
2018-07-23T15:38:36.743Z,44.58
2018-07-23T15:41:04.908Z,44.88
2018-07-23T15:43:33.208Z,44.03
2018-07-23T15:46:01.779Z,44.07
2018-07-23T15:48:29.871Z,43.69
2018-07-23T15:50:58.314Z,44.36
2018-07-23T15:53:26.650Z,44.45
2018-07-23T15:55:54.911Z,43.87
2018-07-23T15:58:23.180Z,43.33
2018-07-23T16:00:51.525Z,44.02
2018-07-23T16:03:19.832Z,44.45
2018-07-23T16:05:48.067Z,44.55
2018-07-23T16:08:16.313Z,44.88
2018-07-23T16:10:44.736Z,44.93
2018-07-23T16:13:13.187Z,45.01
2018-07-23T16:15:41.461Z,44.38
2018-07-23T16:18:09.685Z,42.06
2018-07-23T16:20:37.951Z,40.64
2018-07-23T16:23:06.161Z,40.61
2018-07-23T16:25:34.328Z,41.60
2018-07-23T16:28:02.745Z,40.30
2018-07-23T16:30:31.010Z,41.16
2018-07-23T16:32:59.257Z,41.03
2018-07-23T16:35:27.496Z,40.65
2018-07-23T16:37:55.755Z,40.52
2018-07-23T16:40:24.051Z,39.86
2018-07-23T16:42:52.439Z,40.45
2018-07-23T16:45:20.697Z,40.58
2018-07-23T16:47:48.967Z,39.47
2018-07-23T16:50:17.245Z,39.71
2018-07-23T16:52:45.503Z,40.10
2018-07-23T16:55:13.721Z,39.37
2018-07-23T16:57:41.960Z,39.24
2018-07-23T17:00:10.235Z,38.96
2018-07-23T17:02:38.493Z,38.53
2018-07-23T17:05:06.771Z,39.02
2018-07-23T17:07:35.123Z,37.86
2018-07-23T17:10:03.447Z,36.95
2018-07-23T17:12:31.760Z,36.95
2018-07-23T17:15:01.155Z,37.81
2018-07-23T17:17:29.477Z,38.16
2018-07-23T17:19:57.701Z,38.51
2018-07-23T17:22:25.962Z,38.83
2018-07-23T17:24:54.351Z,38.97
2018-07-23T17:27:22.849Z,39.09
2018-07-23T17:29:51.098Z,38.44
2018-07-23T17:32:19.332Z,38.72
2018-07-23T17:34:47.686Z,38.75
2018-07-23T17:37:16.010Z,38.70
2018-07-23T17:39:44.311Z,38.39
2018-07-23T17:42:12.759Z,37.92
2018-07-23T17:44:41.063Z,37.96
2018-07-23T17:47:09.446Z,37.88
2018-07-23T17:49:37.733Z,37.56
2018-07-23T17:52:06.089Z,37.45
2018-07-23T17:54:34.298Z,37.56
2018-07-23T17:57:02.545Z,36.92
2018-07-23T17:59:30.922Z,36.22
2018-07-23T18:01:59.209Z,36.36
2018-07-23T18:04:27.679Z,35.70
2018-07-23T18:06:55.913Z,35.00
2018-07-23T18:09:24.235Z,34.04
2018-07-23T18:11:52.539Z,33.14
2018-07-23T18:14:20.816Z,32.45
2018-07-23T18:16:49.060Z,31.75
2018-07-23T18:19:17.470Z,31.33
2018-07-23T18:21:45.751Z,31.16
2018-07-23T18:24:14.161Z,31.12
2018-07-23T18:26:42.438Z,30.90
2018-07-23T18:29:10.651Z,30.65
2018-07-23T18:31:38.941Z,30.33
2018-07-23T18:34:07.402Z,30.00
2018-07-23T18:36:35.773Z,29.80
2018-07-23T18:39:06.281Z,29.36
2018-07-23T18:41:34.515Z,29.28
2018-07-23T18:44:02.739Z,29.04
2018-07-23T18:46:31.091Z,29.18
2018-07-23T18:49:21.664Z,28.73
2018-07-23T18:51:51.718Z,28.61
2018-07-23T18:54:21.258Z,28.41
2018-07-23T18:56:52.355Z,28.14
2018-07-23T18:59:20.670Z,27.94
2018-07-23T19:01:49.880Z,27.80
2018-07-23T19:04:18.414Z,27.76
2018-07-23T19:06:46.901Z,27.69
2018-07-23T19:09:16.634Z,27.47
2018-07-23T19:11:45.934Z,27.20
2018-07-23T19:14:14.845Z,27.06
2018-07-23T19:16:43.416Z,27.06
2018-07-23T19:19:11.806Z,26.98
2018-07-23T19:21:40.080Z,26.93
2018-07-23T19:24:08.334Z,26.84
2018-07-23T19:26:36.759Z,26.67
2018-07-23T19:29:05.258Z,26.68
2018-07-23T19:31:33.552Z,26.64
2018-07-23T19:34:02.753Z,26.65
2018-07-23T19:36:31.206Z,26.58
2018-07-23T19:38:59.759Z,26.58
2018-07-23T19:41:28.605Z,26.54
2018-07-23T19:43:56.926Z,26.49
2018-07-23T19:46:25.170Z,26.47
2018-07-23T19:48:53.667Z,26.39
2018-07-23T19:51:21.873Z,26.39
2018-07-23T19:53:50.141Z,26.33
2018-07-23T19:56:18.423Z,26.09
2018-07-23T19:58:46.747Z,25.89
2018-07-23T20:01:14.977Z,25.63
2018-07-23T20:03:43.399Z,25.39
2018-07-23T20:06:11.950Z,25.18
2018-07-23T20:08:40.249Z,25.02
2018-07-23T20:11:08.809Z,24.93
2018-07-23T20:13:37.021Z,24.84
2018-07-23T20:16:05.385Z,24.72
2018-07-23T20:18:33.726Z,24.55
2018-07-23T20:21:03.147Z,24.47
2018-07-23T20:23:31.417Z,24.39
2018-07-23T20:25:59.791Z,24.32
2018-07-23T20:28:28.014Z,24.21
2018-07-23T20:30:56.272Z,24.10
2018-07-23T20:33:25.391Z,23.98
2018-07-23T20:35:53.651Z,23.94
2018-07-23T20:38:21.967Z,23.88
2018-07-23T20:40:50.251Z,23.80
2018-07-23T20:43:18.704Z,23.68
2018-07-23T20:45:46.969Z,23.62
2018-07-23T20:48:15.165Z,23.59
2018-07-23T20:50:43.518Z,23.55
2018-07-23T20:53:11.809Z,23.47
2018-07-23T20:55:40.026Z,23.37
2018-07-23T20:58:08.401Z,23.30
2018-07-23T21:00:36.963Z,23.18
2018-07-23T21:03:06.067Z,23.11
2018-07-23T21:05:34.564Z,23.04
2018-07-23T21:08:03.011Z,23.04
2018-07-23T21:10:31.328Z,22.96
2018-07-23T21:12:59.724Z,22.90
2018-07-23T21:15:28.198Z,22.82
2018-07-23T21:17:56.683Z,22.79
2018-07-23T21:20:25.146Z,22.72
2018-07-23T21:22:53.472Z,22.67
2018-07-23T21:25:21.903Z,22.59
2018-07-23T21:27:50.254Z,22.57
2018-07-23T21:30:19.583Z,22.54
2018-07-23T21:32:48.007Z,22.44
2018-07-23T21:35:16.440Z,22.43
2018-07-23T21:37:44.788Z,22.39
2018-07-23T21:40:13.246Z,22.44
2018-07-23T21:42:41.716Z,22.36
2018-07-23T21:45:10.671Z,22.31
2018-07-23T21:47:39.152Z,22.56
2018-07-23T21:50:08.506Z,22.69
2018-07-23T21:52:37.040Z,22.85
2018-07-23T21:55:06.016Z,22.87
2018-07-23T21:57:34.426Z,22.92
2018-07-23T22:00:02.748Z,22.83
2018-07-23T22:02:31.101Z,22.68
2018-07-23T22:04:59.482Z,22.62
2018-07-23T22:07:27.991Z,22.46
2018-07-23T22:09:56.439Z,22.41
2018-07-23T22:12:24.854Z,22.29
2018-07-23T22:14:53.173Z,22.18
2018-07-23T22:17:21.735Z,22.03
2018-07-23T22:19:50.100Z,21.95
2018-07-23T22:22:18.487Z,21.85
2018-07-23T22:24:46.982Z,21.83
2018-07-23T22:27:15.244Z,21.69
2018-07-23T22:29:43.455Z,21.64
2018-07-23T22:32:11.734Z,21.57
2018-07-23T22:34:39.963Z,21.48
2018-07-23T22:37:08.213Z,21.46
2018-07-23T22:39:36.613Z,21.46
2018-07-23T22:42:05.129Z,21.47
2018-07-23T22:44:33.327Z,21.45
2018-07-23T22:47:01.556Z,21.39
2018-07-23T22:49:29.962Z,21.43
2018-07-23T22:51:58.296Z,21.37
2018-07-23T22:54:26.531Z,21.38
2018-07-23T22:56:54.817Z,21.34
2018-07-23T22:59:23.232Z,21.18
2018-07-23T23:01:51.479Z,20.99
2018-07-23T23:04:19.757Z,21.05
2018-07-23T23:06:48.065Z,20.99
2018-07-23T23:09:16.523Z,20.99
2018-07-23T23:11:44.830Z,20.92
2018-07-23T23:14:13.150Z,20.87
2018-07-23T23:16:41.581Z,20.91
2018-07-23T23:19:09.879Z,20.80
2018-07-23T23:21:38.339Z,20.82
2018-07-23T23:24:06.572Z,20.77
2018-07-23T23:26:34.919Z,20.69
2018-07-23T23:29:03.181Z,20.72
2018-07-23T23:31:31.617Z,20.73
2018-07-23T23:33:59.919Z,20.70
2018-07-23T23:36:28.153Z,20.67
2018-07-23T23:38:56.645Z,20.68
2018-07-23T23:41:24.871Z,20.62
2018-07-23T23:43:53.163Z,20.59
2018-07-23T23:46:21.440Z,20.45
2018-07-23T23:48:49.702Z,20.50
2018-07-23T23:53:47.165Z,20.41
2018-07-23T23:56:15.440Z,20.46
2018-07-23T23:58:43.693Z,20.47
